TimeEST,TemperatureF,Dew PointF,Humidity,Sea Level PressureIn,VisibilityMPH,Wind Direction,Wind SpeedMPH,Gust SpeedMPH,PrecipitationIn,Events,Conditions,WindDirDegrees,DateUTC
12:53 AM,64.0,55.9,75,29.81,10.0,SSE,17.3,-,0.01,,Scattered Clouds,160,2012-12-26 05:53:00
1:53 AM,66.0,57.0,73,29.78,10.0,South,16.1,25.3,N/A,,Overcast,170,2012-12-26 06:53:00
2:53 AM,66.9,57.9,73,29.76,10.0,South,17.3,25.3,N/A,,Overcast,180,2012-12-26 07:53:00
3:49 AM,66.2,59.0,78,29.71,10.0,South,18.4,28.8,0.01,,Overcast,180,2012-12-26 08:49:00
3:53 AM,66.9,59.0,76,29.73,10.0,South,23.0,28.8,0.01,,Overcast,170,2012-12-26 08:53:00
4:53 AM,66.9,59.0,76,29.70,10.0,South,17.3,24.2,0.00,,Overcast,170,2012-12-26 09:53:00
5:10 AM,66.2,59.0,78,29.66,10.0,South,16.1,-,N/A,,Overcast,170,2012-12-26 10:10:00
5:40 AM,66.2,60.8,83,29.63,10.0,South,19.6,29.9,N/A,,Overcast,170,2012-12-26 10:40:00
5:53 AM,66.0,60.1,81,29.64,10.0,South,20.7,28.8,0.00,Rain,Light Rain,170,2012-12-26 10:53:00
6:23 AM,66.2,62.6,88,29.65,5.0,South,11.5,17.3,N/A,Rain-Thunderstorm,Rain,180,2012-12-26 11:23:00
6:36 AM,68.0,62.6,83,29.68,8.0,West,11.5,21.9,N/A,Rain,Light Rain,280,2012-12-26 11:36:00
6:39 AM,66.2,62.6,88,29.68,4.0,West,9.2,21.9,N/A,Rain,Rain,260,2012-12-26 11:39:00
6:43 AM,64.4,60.8,88,29.68,1.5,West,8.1,21.9,N/A,Rain,Heavy Rain,260,2012-12-26 11:43:00
6:53 AM,63.0,59.0,87,29.71,1.0,West,8.1,25.3,N/A,Rain,Heavy Rain,260,2012-12-26 11:53:00
6:58 AM,62.6,59.0,88,29.68,5.0,WSW,8.1,25.3,0.00,Rain,Light Rain,250,2012-12-26 11:58:00
7:15 AM,62.6,59.0,88,29.69,8.0,Variable,4.6,-,0.01,,Overcast,0,2012-12-26 12:15:00
7:40 AM,62.6,57.2,82,29.70,8.0,Variable,5.8,-,0.01,,Overcast,0,2012-12-26 12:40:00
7:53 AM,63.0,55.0,75,29.72,8.0,Variable,3.5,-,0.01,,Overcast,0,2012-12-26 12:53:00
8:18 AM,62.6,55.4,77,29.71,10.0,Variable,3.5,-,N/A,,Overcast,0,2012-12-26 13:18:00
8:53 AM,63.0,55.9,78,29.75,10.0,Variable,3.5,-,N/A,,Overcast,0,2012-12-26 13:53:00
9:53 AM,64.0,55.0,73,29.77,10.0,WSW,9.2,-,N/A,,Mostly Cloudy,240,2012-12-26 14:53:00
10:34 AM,66.2,53.6,64,29.76,10.0,Variable,5.8,23.0,N/A,,Overcast,0,2012-12-26 15:34:00
10:53 AM,64.0,52.0,65,29.78,10.0,West,9.2,24.2,N/A,,Overcast,260,2012-12-26 15:53:00
11:00 AM,64.4,51.8,64,29.76,10.0,West,8.1,21.9,N/A,,Scattered Clouds,260,2012-12-26 16:00:00
11:53 AM,68.0,51.1,55,29.78,10.0,WNW,9.2,23.0,0.01,,Scattered Clouds,290,2012-12-26 16:53:00
12:53 PM,64.9,46.9,52,29.77,10.0,West,9.2,25.3,N/A,,Scattered Clouds,270,2012-12-26 17:53:00
1:53 PM,57.9,39.9,51,29.80,10.0,WNW,11.5,23.0,N/A,,Scattered Clouds,300,2012-12-26 18:53:00
2:53 PM,55.0,36.0,49,29.83,10.0,NW,9.2,18.4,0.01,,Scattered Clouds,310,2012-12-26 19:53:00
3:53 PM,52.0,34.0,50,29.87,10.0,Variable,6.9,23.0,N/A,,Scattered Clouds,0,2012-12-26 20:53:00
4:53 PM,48.9,33.1,54,29.91,10.0,WNW,8.1,19.6,N/A,,Scattered Clouds,300,2012-12-26 21:53:00
5:53 PM,46.0,32.0,58,29.94,10.0,Variable,4.6,-,N/A,,Mostly Cloudy,0,2012-12-26 22:53:00
6:53 PM,45.0,32.0,60,29.97,10.0,NW,8.1,-,N/A,,Mostly Cloudy,310,2012-12-26 23:53:00
7:53 PM,43.0,32.0,65,30.00,10.0,Variable,5.8,-,N/A,,Scattered Clouds,0,2012-12-27 00:53:00
8:53 PM,42.1,30.9,65,30.02,10.0,Variable,4.6,-,0.01,,Scattered Clouds,0,2012-12-27 01:53:00
9:22 PM,42.8,32.0,66,30.00,10.0,Variable,4.6,-,N/A,,Mostly Cloudy,0,2012-12-27 02:22:00
9:53 PM,43.0,32.0,65,30.03,10.0,Variable,5.8,-,N/A,,Overcast,0,2012-12-27 02:53:00
10:53 PM,41.0,30.9,67,30.05,10.0,Variable,5.8,-,N/A,,Scattered Clouds,0,2012-12-27 03:53:00
11:12 PM,41.0,30.2,65,30.03,10.0,Variable,4.6,-,N/A,,Mostly Cloudy,0,2012-12-27 04:12:00
11:53 PM,41.0,30.9,67,30.06,10.0,Variable,4.6,-,N/A,,Overcast,0,2012-12-27 04:53:00